createdAt,value
2023-04-19T00:01:49.859Z,22.25
2023-04-19T00:04:16.894Z,24.63
2023-04-19T00:06:43.605Z,22.55
2023-04-19T00:09:10.013Z,21.35
2023-04-19T00:11:36.472Z,19.33
2023-04-19T00:14:03.050Z,21.65
2023-04-19T00:16:29.532Z,24.42
2023-04-19T00:18:55.973Z,22.13
2023-04-19T00:21:22.359Z,21.88
2023-04-19T00:23:48.751Z,23.25
2023-04-19T00:26:17.967Z,20.38
2023-04-19T00:28:44.343Z,21.98
2023-04-19T00:31:10.940Z,24.67
2023-04-19T00:33:37.340Z,23.00
2023-04-19T00:36:03.875Z,23.05
2023-04-19T00:38:30.456Z,24.63
2023-04-19T00:40:56.831Z,21.52
2023-04-19T00:43:23.223Z,21.83
2023-04-19T00:45:49.804Z,23.33
2023-04-19T00:48:16.326Z,19.35
2023-04-19T00:50:43.822Z,22.65
2023-04-19T00:53:10.694Z,21.42
2023-04-19T00:55:39.284Z,20.13
2023-04-19T00:58:07.332Z,19.92
2023-04-19T01:00:33.750Z,23.00
2023-04-19T01:03:00.403Z,20.20
2023-04-19T01:05:27.269Z,20.45
2023-04-19T01:07:53.659Z,18.48
2023-04-19T01:10:20.076Z,19.45
2023-04-19T01:12:46.445Z,18.92
2023-04-19T01:15:12.893Z,16.75
2023-04-19T01:17:39.507Z,18.20
2023-04-19T01:20:07.909Z,17.95
2023-04-19T01:22:37.596Z,16.92
2023-04-19T01:25:04.855Z,15.88
2023-04-19T01:27:31.287Z,13.32
2023-04-19T01:29:57.717Z,13.30
2023-04-19T01:32:26.235Z,11.32
2023-04-19T01:34:53.049Z,13.73
2023-04-19T01:37:19.517Z,11.93
2023-04-19T01:39:46.007Z,10.25
2023-04-19T01:42:12.470Z,9.52
2023-04-19T01:44:38.878Z,12.45
2023-04-19T01:47:05.667Z,10.23
2023-04-19T01:49:32.175Z,9.27
2023-04-19T01:51:58.569Z,11.32
2023-04-19T01:54:25.234Z,10.73
2023-04-19T01:56:51.656Z,9.15
2023-04-19T01:59:18.040Z,9.95
2023-04-19T02:01:44.447Z,9.23
2023-04-19T02:04:10.901Z,8.07
2023-04-19T02:06:37.450Z,10.50
2023-04-19T02:09:03.892Z,11.45
2023-04-19T02:11:30.297Z,10.02
2023-04-19T02:13:56.660Z,8.10
2023-04-19T02:16:23.074Z,10.85
2023-04-19T02:18:49.537Z,10.35
2023-04-19T02:21:15.990Z,9.48
2023-04-19T02:23:42.377Z,8.07
2023-04-19T02:26:08.806Z,8.63
2023-04-19T02:28:35.273Z,12.45
2023-04-19T02:31:05.659Z,7.72
2023-04-19T02:33:32.031Z,8.80
2023-04-19T02:35:58.415Z,8.85
2023-04-19T02:38:24.829Z,8.43
2023-04-19T02:40:51.219Z,9.63
2023-04-19T02:43:17.604Z,7.28
2023-04-19T02:45:44.177Z,7.85
2023-04-19T02:48:10.644Z,8.02
2023-04-19T02:50:38.519Z,8.82
2023-04-19T02:53:04.917Z,8.77
2023-04-19T02:55:31.287Z,9.27
2023-04-19T02:57:57.684Z,7.10
2023-04-19T03:00:24.115Z,8.43
2023-04-19T03:02:50.638Z,9.32
2023-04-19T03:05:17.079Z,7.43
2023-04-19T03:07:44.716Z,7.32
2023-04-19T03:10:11.255Z,6.45
2023-04-19T03:12:37.687Z,7.30
2023-04-19T03:15:04.448Z,6.78
2023-04-19T03:17:30.923Z,6.80
2023-04-19T03:19:57.435Z,7.50
2023-04-19T03:22:23.819Z,8.35
2023-04-19T03:24:50.415Z,10.15
2023-04-19T03:27:16.803Z,8.20
2023-04-19T03:29:43.241Z,8.75
2023-04-19T03:32:09.616Z,7.53
2023-04-19T03:34:36.008Z,10.25
2023-04-19T03:37:02.398Z,10.88
2023-04-19T03:39:28.771Z,7.20
2023-04-19T03:41:55.176Z,8.77
2023-04-19T03:44:21.614Z,8.77
2023-04-19T03:46:48.729Z,8.88
2023-04-19T03:49:15.185Z,9.00
2023-04-19T03:51:41.619Z,8.75
2023-04-19T03:54:08.071Z,9.48
2023-04-19T03:56:34.506Z,9.52
2023-04-19T03:59:00.936Z,8.90
2023-04-19T04:01:27.951Z,8.52
2023-04-19T04:03:54.598Z,8.38
2023-04-19T04:06:21.144Z,9.00
2023-04-19T04:08:47.771Z,9.20
2023-04-19T04:11:14.357Z,8.50
2023-04-19T04:13:40.773Z,8.77
2023-04-19T04:16:07.244Z,9.35
2023-04-19T04:18:33.657Z,10.55
2023-04-19T04:21:00.659Z,11.05
2023-04-19T04:23:28.247Z,8.48
2023-04-19T04:26:01.490Z,10.23
2023-04-19T04:28:28.575Z,11.27
2023-04-19T04:30:57.296Z,9.70
2023-04-19T04:33:28.131Z,13.30
2023-04-19T04:35:56.287Z,12.70
2023-04-19T04:38:24.917Z,9.95
2023-04-19T04:40:56.843Z,10.07
2023-04-19T04:43:25.574Z,11.20
2023-04-19T04:45:52.085Z,10.82
2023-04-19T04:48:18.637Z,10.57
2023-04-19T04:50:45.203Z,12.32
2023-04-19T04:53:13.097Z,11.77
2023-04-19T04:55:39.707Z,9.93
2023-04-19T04:58:06.254Z,12.50
2023-04-19T05:00:33.666Z,11.07
2023-04-19T05:03:00.344Z,11.45
2023-04-19T05:05:26.857Z,12.23
2023-04-19T05:07:53.235Z,13.82
2023-04-19T05:10:19.637Z,13.98
2023-04-19T05:12:46.023Z,12.45
2023-04-19T05:15:12.423Z,11.80
2023-04-19T05:17:38.836Z,14.80
2023-04-19T05:20:05.954Z,12.10
2023-04-19T05:22:32.337Z,9.68
2023-04-19T05:24:58.688Z,10.00
2023-04-19T05:27:25.040Z,13.98
2023-04-19T05:29:51.933Z,27.08
2023-04-19T05:32:18.347Z,10.15
2023-04-19T05:34:44.736Z,11.50
2023-04-19T05:37:11.213Z,8.82
2023-04-19T05:39:37.652Z,12.00
2023-04-19T05:42:04.163Z,10.38
2023-04-19T05:44:30.598Z,8.30
2023-04-19T05:46:56.998Z,8.57
2023-04-19T05:49:23.748Z,7.50
2023-04-19T05:51:50.179Z,8.52
2023-04-19T05:54:17.407Z,10.00
2023-04-19T05:56:43.929Z,5.05
2023-04-19T05:59:11.487Z,5.88
2023-04-19T06:01:38.096Z,7.85
2023-04-19T06:04:04.804Z,6.50
2023-04-19T06:06:31.471Z,10.27
2023-04-19T06:08:57.879Z,7.30
2023-04-19T06:11:29.257Z,9.68
2023-04-19T06:14:05.916Z,7.72
2023-04-19T06:16:32.401Z,8.27
2023-04-19T06:18:58.833Z,5.78
2023-04-19T06:21:25.239Z,5.50
2023-04-19T06:23:51.720Z,8.02
2023-04-19T06:26:18.134Z,7.47
2023-04-19T06:28:44.506Z,6.68
2023-04-19T06:31:12.166Z,6.90
2023-04-19T06:33:38.706Z,7.45
2023-04-19T06:36:05.870Z,10.32
2023-04-19T06:38:32.436Z,7.38
2023-04-19T06:40:58.813Z,6.35
2023-04-19T06:43:25.686Z,6.18
2023-04-19T06:46:10.082Z,8.05
2023-04-19T06:48:36.634Z,6.97
2023-04-19T06:51:03.127Z,5.50
2023-04-19T06:53:29.597Z,6.68
2023-04-19T06:56:01.056Z,4.63
2023-04-19T06:58:28.342Z,6.82
2023-04-19T07:00:54.771Z,8.23
2023-04-19T07:03:21.749Z,5.07
2023-04-19T07:05:48.700Z,6.90
2023-04-19T07:08:16.121Z,5.32
2023-04-19T07:10:43.720Z,8.80
2023-04-19T07:13:13.248Z,8.85
2023-04-19T07:15:39.817Z,7.35
2023-04-19T07:18:06.525Z,7.35
2023-04-19T07:20:33.508Z,5.50
2023-04-19T07:23:00.187Z,14.02
2023-04-19T07:25:27.410Z,5.55
2023-04-19T07:27:54.702Z,6.22
2023-04-19T07:30:21.190Z,8.05
2023-04-19T07:32:47.830Z,8.00
2023-04-19T07:35:14.339Z,5.35
2023-04-19T07:37:40.749Z,6.55
2023-04-19T07:40:07.658Z,9.57
2023-04-19T07:42:34.053Z,4.00
2023-04-19T07:45:00.466Z,7.97
2023-04-19T07:47:26.949Z,7.70
2023-04-19T07:49:53.670Z,7.82
2023-04-19T07:52:20.179Z,9.52
2023-04-19T07:54:47.055Z,5.53
2023-04-19T07:57:13.477Z,7.57
2023-04-19T07:59:39.859Z,10.95
2023-04-19T08:02:07.530Z,8.60
2023-04-19T08:04:34.171Z,3.97
2023-04-19T08:07:00.951Z,8.27
2023-04-19T08:09:27.485Z,5.68
2023-04-19T08:11:53.939Z,4.10
2023-04-19T08:14:34.654Z,4.28
2023-04-19T08:17:23.333Z,6.43
2023-04-19T08:19:52.427Z,10.13
2023-04-19T08:22:19.650Z,5.05
2023-04-19T08:24:46.054Z,3.88
2023-04-19T08:27:12.484Z,5.07
2023-04-19T08:29:38.874Z,4.13
2023-04-19T08:32:06.113Z,10.93
2023-04-19T08:34:35.934Z,2.88
2023-04-19T08:37:04.424Z,3.65
2023-04-19T08:39:35.044Z,8.32
2023-04-19T08:42:12.640Z,4.60
2023-04-19T08:45:06.343Z,4.75
2023-04-19T08:47:48.527Z,5.88
2023-04-19T08:50:32.533Z,4.97
2023-04-19T08:53:12.306Z,4.22
2023-04-19T08:56:07.835Z,4.45
2023-04-19T08:58:52.115Z,3.55
2023-04-19T09:01:33.955Z,3.22
2023-04-19T09:04:17.272Z,4.88
2023-04-19T09:06:49.261Z,3.10
2023-04-19T09:09:34.055Z,3.72
2023-04-19T09:12:03.416Z,4.53
2023-04-19T09:14:29.853Z,8.18
2023-04-19T09:17:17.903Z,5.82
2023-04-19T09:19:50.529Z,4.07
2023-04-19T09:22:17.262Z,3.80
2023-04-19T09:27:13.916Z,4.60
2023-04-19T09:29:40.383Z,4.72
2023-04-19T09:32:06.808Z,3.58
2023-04-19T09:34:33.259Z,5.60
2023-04-19T09:37:17.732Z,3.40
2023-04-19T09:39:54.744Z,4.90
2023-04-19T09:42:42.316Z,4.20
2023-04-19T09:47:38.013Z,5.63
2023-04-19T09:50:22.861Z,3.30
2023-04-19T09:52:51.355Z,3.50
2023-04-19T09:55:26.780Z,31.33
2023-04-19T09:57:55.281Z,6.22
2023-04-19T10:00:22.813Z,5.53
2023-04-19T10:02:57.492Z,11.90
2023-04-19T10:05:24.859Z,4.78
2023-04-19T10:07:53.268Z,11.30
2023-04-19T10:10:27.551Z,7.20
2023-04-19T10:15:53.630Z,19.73
2023-04-19T10:18:22.049Z,5.50
2023-04-19T10:21:00.085Z,4.93
2023-04-19T10:23:26.729Z,14.93
2023-04-19T10:25:57.739Z,8.73
2023-04-19T10:28:24.427Z,7.13
2023-04-19T10:30:58.458Z,6.88
2023-04-19T10:33:27.092Z,8.93
2023-04-19T10:35:56.569Z,8.73
2023-04-19T10:38:47.052Z,5.45
2023-04-19T10:41:18.723Z,5.22
2023-04-19T10:43:47.333Z,5.95
2023-04-19T10:46:36.726Z,7.97
2023-04-19T10:49:05.025Z,7.88
2023-04-19T10:51:39.717Z,4.03
2023-04-19T10:54:10.513Z,4.50
2023-04-19T10:56:37.360Z,4.28
2023-04-19T10:59:13.165Z,5.82
2023-04-19T11:01:54.558Z,6.50
2023-04-19T11:04:30.381Z,6.15
2023-04-19T11:06:57.137Z,5.63
2023-04-19T11:09:41.956Z,4.40
2023-04-19T11:12:12.015Z,6.15
2023-04-19T11:14:46.786Z,5.05
2023-04-19T11:17:18.067Z,4.43
2023-04-19T11:19:57.439Z,7.60
2023-04-19T11:22:32.011Z,6.80
2023-04-19T11:25:12.328Z,6.82
2023-04-19T11:27:40.468Z,7.93
2023-04-19T11:30:13.969Z,6.32
2023-04-19T11:32:48.297Z,8.70
2023-04-19T11:35:15.550Z,4.95
2023-04-19T11:37:41.989Z,4.80
2023-04-19T11:40:09.197Z,8.40
2023-04-19T11:42:36.089Z,5.32
2023-04-19T11:45:02.896Z,4.43
2023-04-19T11:47:29.455Z,7.22
2023-04-19T11:49:58.745Z,5.22
2023-04-19T11:52:26.042Z,4.00
2023-04-19T11:54:53.046Z,5.00
2023-04-19T11:57:29.906Z,5.90
2023-04-19T12:00:05.492Z,6.55
2023-04-19T12:02:32.061Z,7.68
2023-04-19T12:05:08.322Z,5.10
2023-04-19T12:07:34.914Z,10.43
2023-04-19T12:10:10.253Z,4.47
2023-04-19T12:12:37.381Z,11.32
2023-04-19T12:15:05.197Z,5.35
2023-04-19T12:17:32.005Z,5.22
2023-04-19T12:19:58.379Z,5.80
2023-04-19T12:22:24.758Z,5.53
2023-04-19T12:24:52.104Z,4.15
2023-04-19T12:27:18.530Z,4.30
2023-04-19T12:29:45.968Z,5.95
2023-04-19T12:32:13.092Z,5.43
2023-04-19T12:34:39.542Z,7.10
2023-04-19T12:37:05.918Z,5.13
2023-04-19T12:39:32.302Z,3.20
2023-04-19T12:41:58.825Z,4.10
2023-04-19T12:44:25.248Z,5.50
2023-04-19T12:46:52.001Z,5.88
2023-04-19T12:49:19.959Z,3.70
2023-04-19T12:51:47.492Z,6.25
2023-04-19T12:54:15.221Z,3.88
2023-04-19T12:56:41.666Z,4.03
2023-04-19T12:59:08.060Z,4.28
2023-04-19T13:01:34.484Z,5.53
2023-04-19T13:04:01.252Z,4.18
2023-04-19T13:06:27.948Z,3.95
2023-04-19T13:08:54.966Z,5.57
2023-04-19T13:11:23.379Z,3.33
2023-04-19T13:13:51.425Z,5.35
2023-04-19T13:16:17.832Z,8.65
2023-04-19T13:18:44.267Z,4.55
2023-04-19T13:21:10.649Z,4.88
2023-04-19T13:23:37.069Z,3.80
2023-04-19T13:26:03.608Z,5.43
2023-04-19T13:28:30.960Z,5.00
2023-04-19T13:30:57.459Z,3.85
2023-04-19T13:33:23.898Z,2.55
2023-04-19T13:35:50.298Z,4.47
2023-04-19T13:38:16.675Z,7.35
2023-04-19T13:40:44.657Z,4.03
2023-04-19T13:43:11.026Z,3.40
2023-04-19T13:45:37.386Z,3.80
2023-04-19T13:48:03.932Z,3.55
2023-04-19T13:50:30.410Z,3.13
2023-04-19T13:52:56.794Z,2.90
2023-04-19T13:55:23.228Z,8.15
2023-04-19T13:57:50.981Z,5.90
2023-04-19T14:00:18.054Z,3.40
2023-04-19T14:02:45.384Z,5.80
2023-04-19T14:05:12.008Z,4.50
2023-04-19T14:07:41.471Z,3.90
2023-04-19T14:10:09.267Z,3.05
2023-04-19T14:12:35.693Z,3.60
2023-04-19T14:15:02.196Z,2.70
2023-04-19T14:17:28.695Z,3.15
2023-04-19T14:19:56.425Z,4.22
2023-04-19T14:22:22.807Z,4.32
2023-04-19T14:24:49.201Z,3.70
2023-04-19T14:27:15.631Z,5.30
2023-04-19T14:29:41.991Z,3.13
2023-04-19T14:32:24.494Z,3.15
2023-04-19T14:34:52.462Z,2.88
2023-04-19T14:37:21.133Z,3.65
2023-04-19T14:39:47.577Z,2.53
2023-04-19T14:42:13.979Z,3.08
2023-04-19T14:44:40.880Z,3.20
2023-04-19T14:47:07.524Z,3.75
2023-04-19T14:49:33.926Z,3.35
2023-04-19T14:52:00.344Z,5.32
2023-04-19T14:54:26.742Z,2.38
2023-04-19T14:56:53.633Z,4.55
2023-04-19T14:59:20.300Z,3.28
2023-04-19T15:01:46.739Z,3.38
2023-04-19T15:04:13.441Z,2.65
2023-04-19T15:06:40.783Z,3.47
2023-04-19T15:09:07.475Z,5.05
2023-04-19T15:11:33.866Z,2.70
2023-04-19T15:14:00.358Z,3.17
2023-04-19T15:16:26.834Z,4.15
2023-04-19T15:18:53.237Z,2.95
2023-04-19T15:21:22.923Z,2.97
2023-04-19T15:23:50.692Z,5.43
2023-04-19T15:26:17.070Z,2.90
2023-04-19T15:28:43.451Z,3.03
2023-04-19T15:31:10.339Z,8.15
2023-04-19T15:33:37.498Z,2.33
2023-04-19T15:36:04.134Z,4.95
2023-04-19T15:38:31.272Z,3.35
2023-04-19T15:40:58.766Z,1.92
2023-04-19T15:43:25.470Z,3.42
2023-04-19T15:45:52.023Z,3.15
2023-04-19T15:48:18.640Z,3.28
2023-04-19T15:50:45.026Z,4.18
2023-04-19T15:53:11.506Z,3.38
2023-04-19T15:55:39.915Z,2.92
2023-04-19T15:58:06.305Z,2.60
2023-04-19T16:00:32.740Z,3.15
2023-04-19T16:02:59.229Z,3.10
2023-04-19T16:05:26.950Z,3.38
2023-04-19T16:08:09.509Z,3.90
2023-04-19T16:10:36.190Z,4.28
2023-04-19T16:13:05.832Z,2.40
2023-04-19T16:15:32.585Z,2.80
2023-04-19T16:17:59.072Z,3.42
2023-04-19T16:20:25.528Z,3.30
2023-04-19T16:22:51.964Z,3.45
2023-04-19T16:25:18.398Z,4.18
2023-04-19T16:27:46.264Z,4.85
2023-04-19T16:30:13.467Z,5.35
2023-04-19T16:32:41.141Z,3.97
2023-04-19T16:35:08.190Z,2.60
2023-04-19T16:37:35.165Z,5.65
2023-04-19T16:40:07.940Z,6.55
2023-04-19T16:42:35.347Z,2.50
2023-04-19T16:45:01.935Z,4.05
2023-04-19T16:47:30.101Z,4.80
2023-04-19T16:49:57.570Z,3.33
2023-04-19T16:52:28.924Z,2.67
2023-04-19T16:54:55.339Z,5.00
2023-04-19T16:57:23.058Z,4.47
2023-04-19T16:59:49.735Z,11.23
2023-04-19T17:02:16.517Z,5.22
2023-04-19T17:04:43.433Z,5.88
2023-04-19T17:07:10.065Z,4.35
2023-04-19T17:09:36.444Z,4.90
2023-04-19T17:12:03.107Z,10.35
2023-04-19T17:14:29.794Z,4.65
2023-04-19T17:16:56.206Z,4.13
2023-04-19T17:19:22.653Z,7.00
2023-04-19T17:21:49.029Z,4.10
2023-04-19T17:24:15.394Z,6.47
2023-04-19T17:26:41.758Z,6.90
2023-04-19T17:29:08.690Z,3.85
2023-04-19T17:31:35.171Z,3.80
2023-04-19T17:34:01.613Z,8.20
2023-04-19T17:36:28.598Z,5.55
2023-04-19T17:38:55.021Z,6.68
2023-04-19T17:41:21.444Z,8.32
2023-04-19T17:43:47.845Z,6.78
2023-04-19T17:46:14.954Z,4.25
2023-04-19T17:48:41.799Z,6.68
2023-04-19T17:51:08.220Z,4.40
2023-04-19T17:53:34.586Z,7.72
2023-04-19T17:56:00.968Z,8.98
2023-04-19T17:58:27.344Z,6.93
2023-04-19T18:00:53.882Z,4.85
2023-04-19T18:03:20.671Z,6.97
2023-04-19T18:05:47.235Z,6.50
2023-04-19T18:08:13.711Z,6.07
2023-04-19T18:10:40.207Z,6.30
2023-04-19T18:13:06.568Z,6.57
2023-04-19T18:15:33.010Z,5.03
2023-04-19T18:17:59.503Z,9.02
2023-04-19T18:20:26.093Z,5.85
2023-04-19T18:22:53.621Z,4.75
2023-04-19T18:25:20.130Z,6.07
2023-04-19T18:27:46.516Z,6.82
2023-04-19T18:30:13.049Z,5.40
2023-04-19T18:32:39.472Z,5.13
2023-04-19T18:35:08.855Z,5.80
2023-04-19T18:37:35.646Z,8.15
2023-04-19T18:40:02.401Z,7.00
2023-04-19T18:42:28.818Z,6.28
2023-04-19T18:44:55.306Z,5.00
2023-04-19T18:47:22.394Z,7.13
2023-04-19T18:50:02.797Z,7.25
2023-04-19T18:52:30.647Z,7.90
2023-04-19T18:54:58.224Z,7.07
2023-04-19T18:57:27.452Z,5.68
2023-04-19T18:59:55.800Z,6.25
2023-04-19T19:02:22.201Z,7.00
2023-04-19T19:04:56.755Z,5.95
2023-04-19T19:07:35.534Z,5.22
2023-04-19T19:10:16.740Z,6.72
2023-04-19T19:12:45.566Z,5.95
2023-04-19T19:15:12.287Z,6.60
2023-04-19T19:17:38.807Z,5.70
2023-04-19T19:20:06.673Z,7.22
2023-04-19T19:22:34.025Z,7.13
2023-04-19T19:25:00.826Z,7.15
2023-04-19T19:27:27.290Z,7.05
2023-04-19T19:29:53.682Z,7.38
2023-04-19T19:32:20.551Z,8.80
2023-04-19T19:34:55.763Z,7.60
2023-04-19T19:37:27.334Z,6.65
2023-04-19T19:39:56.272Z,7.63
2023-04-19T19:42:23.408Z,5.15
2023-04-19T19:44:53.437Z,9.55
2023-04-19T19:47:19.949Z,8.13
2023-04-19T19:50:20.284Z,6.45
2023-04-19T19:52:32.992Z,7.43
2023-04-19T19:54:59.794Z,4.10
2023-04-19T19:59:56.770Z,6.88
2023-04-19T20:02:24.759Z,7.00
2023-04-19T20:04:51.671Z,4.65
2023-04-19T20:07:36.951Z,8.98
2023-04-19T20:10:10.585Z,5.35
2023-04-19T20:12:37.799Z,7.03
2023-04-19T20:15:04.701Z,7.68
2023-04-19T20:17:31.115Z,4.45
2023-04-19T20:19:58.138Z,9.30
2023-04-19T20:22:24.544Z,7.57
2023-04-19T20:24:52.716Z,4.72
2023-04-19T20:27:19.502Z,7.82
2023-04-19T20:29:45.896Z,8.00
2023-04-19T20:32:12.679Z,5.05
2023-04-19T20:34:39.737Z,10.80
2023-04-19T20:37:06.778Z,6.75
2023-04-19T20:39:33.153Z,9.38
2023-04-19T20:41:59.521Z,6.55
2023-04-19T20:44:26.692Z,7.68
2023-04-19T20:46:53.104Z,7.50
2023-04-19T20:49:19.533Z,8.18
2023-04-19T20:51:46.513Z,8.70
2023-04-19T20:54:12.901Z,4.88
2023-04-19T20:56:39.298Z,6.13
2023-04-19T20:59:05.772Z,3.92
2023-04-19T21:01:33.822Z,5.65
2023-04-19T21:04:00.332Z,6.13
2023-04-19T21:06:26.967Z,14.52
2023-04-19T21:08:53.583Z,4.85
2023-04-19T21:11:19.975Z,6.38
2023-04-19T21:13:46.388Z,4.80
2023-04-19T21:16:12.899Z,4.45
2023-04-19T21:18:39.428Z,11.85
2023-04-19T21:21:05.874Z,5.30
2023-04-19T21:23:32.265Z,5.28
2023-04-19T21:25:58.659Z,7.65
2023-04-19T21:28:25.099Z,9.15
2023-04-19T21:30:53.242Z,6.20
2023-04-19T21:33:19.628Z,7.10
2023-04-19T21:35:45.978Z,5.75
2023-04-19T21:38:12.371Z,6.57
2023-04-19T21:40:38.725Z,5.85
2023-04-19T21:43:05.866Z,4.95
2023-04-19T21:45:32.229Z,12.30
2023-04-19T21:47:58.625Z,7.90
2023-04-19T21:50:25.121Z,4.68
2023-04-19T21:52:51.530Z,5.18
2023-04-19T21:55:18.820Z,4.50
2023-04-19T21:57:45.259Z,5.35
2023-04-19T22:00:12.140Z,5.80
2023-04-19T22:02:38.718Z,7.82
2023-04-19T22:05:07.218Z,6.90
2023-04-19T22:07:33.759Z,2.85
2023-04-19T22:10:02.975Z,5.07
2023-04-19T22:12:29.373Z,5.78
2023-04-19T22:14:56.024Z,6.60
2023-04-19T22:17:22.998Z,6.40
2023-04-19T22:19:49.647Z,4.05
2023-04-19T22:22:16.040Z,5.82
2023-04-19T22:24:56.272Z,5.47
2023-04-19T22:27:24.514Z,9.23
2023-04-19T22:29:50.902Z,5.60
2023-04-19T22:32:17.311Z,6.38
2023-04-19T22:34:43.714Z,9.73
2023-04-19T22:37:10.190Z,7.03
2023-04-19T22:39:36.558Z,6.13
2023-04-19T22:42:02.977Z,7.03
2023-04-19T22:44:29.464Z,5.80
2023-04-19T22:46:55.864Z,5.53
2023-04-19T22:49:22.792Z,4.38
2023-04-19T22:51:49.417Z,9.52
2023-04-19T22:54:15.928Z,6.18
2023-04-19T22:56:42.443Z,4.35
2023-04-19T22:59:08.817Z,6.28
2023-04-19T23:01:35.364Z,8.23
2023-04-19T23:04:01.838Z,7.15
2023-04-19T23:06:28.932Z,4.32
2023-04-19T23:08:56.163Z,5.68
2023-04-19T23:11:25.757Z,7.78
2023-04-19T23:13:55.417Z,5.15
2023-04-19T23:16:25.344Z,5.95
2023-04-19T23:18:52.263Z,10.75
2023-04-19T23:21:18.699Z,6.65
2023-04-19T23:23:45.335Z,6.32
2023-04-19T23:26:11.890Z,7.75
2023-04-19T23:28:38.250Z,5.43
2023-04-19T23:31:04.934Z,6.82
2023-04-19T23:33:31.340Z,6.70
2023-04-19T23:35:57.701Z,7.63
2023-04-19T23:38:24.138Z,6.25
2023-04-19T23:40:50.748Z,8.50
2023-04-19T23:43:17.168Z,3.97
2023-04-19T23:45:43.548Z,8.68
2023-04-19T23:48:09.904Z,6.47
2023-04-19T23:50:36.313Z,6.55
2023-04-19T23:53:04.246Z,8.60
2023-04-19T23:55:30.646Z,4.70
2023-04-19T23:57:57.367Z,6.57
